Airfield :
LOGIN :

Register | Disclaimer

   EN    FR    IT 

 










Legend :    VFR   Marginal VFR   IFR   Intensive IFR   Very Intensive IFR
Visi :
Ceiling :
>= 8 km
>= 3000ft
5 to 8 km
1000 to 3000 ft
1500m to 5 km
500 to 1000 ft
800 to 1500m
200 to 500 ft
< 800m
< 200 ft
Symbols :   Thunderstorms  Fog  Heavy snow  Heavy precipitations  Wind > 20 kt
SIGMETs :     Misc.  Thunderstorms  Icing  Turbulence  Mountain Waves  Volcanic Ashes






- Airport Elevation : 245 ft
- IATA code : BIQ


LFBZ - Biarritz

CURRENT METAR :
  • 120900Z AUTO 13003KT 070V170 9999 FEW016 27/22 Q1011 TEMPO VRB15G30KT 4000 SHRA BKN100TCU

EXPIRED METARs :
  • 120830Z AUTO VRB02KT 9999 FEW007 25/21 Q1012 TEMPO VRB15G30KT 4000 SHRA BKN100TCU
  • 120800Z AUTO VRB01KT 9999 FEW006 BKN150 24/22 Q1012 TEMPO VRB15G30KT 4000 SHRA BKN100TCU
  • 120730Z AUTO 16003KT 140V220 9999 FEW003 BKN140 BKN210 23/22 Q1011 TEMPO VRB15G30KT 4000 SHRA BKN100TCU
  • 120700Z AUTO VRB02KT 9000 BKN003 OVC120 22/22 Q1012 TEMPO 4000 RA BKN005 OVC020
  • 120630Z AUTO 21003KT 160V310 2900 BR BKN002/// BKN100/// OVC130/// ///TCU 23/22 Q1012 TEMPO 4000 RA BKN005 OVC020

TAF TAF LFBZ
Valid from the 12 at 06:00 until the 13 at 06:00 UTC


120500Z 1206/1306 30005KT CAVOK
PROB30
TEMPO 1206/1209 4000 RA BKN005 OVC020
TEMPO 1209/1224 VRB15G30KT 4000 SHRA BKN100TCU
PROB40
TEMPO 1212/1224 VRB20G35KT 3000 TSRA BKN060CB
BECMG 1221/1223 25010KT



MET'MAP, your aeronautical weather chart ! - Copyright ORBIFLY December 2007 - Disclaimer

ORBIFLY MET'MAP TEAM :

Programming & Development : Alexandra Zaïnal
Concept & original design : Baudouin d'Aumeries
Assistance for programming : Marc-Olivier Méhu
Technical & hardware support : Manuel Goepfert

Contact : metmap@orbifly.com




SOURCES & CREDITS :

   NOAA